createdAt,value
2023-02-19T00:00:15.316Z,72.75
2023-02-19T00:03:10.341Z,72.87
2023-02-19T00:05:42.552Z,73.00
2023-02-19T00:08:35.989Z,72.77
2023-02-19T00:11:29.964Z,72.76
2023-02-19T00:14:23.544Z,72.75
2023-02-19T00:17:15.619Z,72.78
2023-02-19T00:20:08.596Z,72.66
2023-02-19T00:22:45.588Z,72.75
2023-02-19T00:25:40.265Z,72.68
2023-02-19T00:28:32.433Z,72.60
2023-02-19T00:31:26.324Z,72.74
2023-02-19T00:34:18.748Z,72.48
2023-02-19T00:36:59.512Z,72.47
2023-02-19T00:39:51.564Z,72.42
2023-02-19T00:42:43.707Z,72.35
2023-02-19T00:45:36.040Z,72.32
2023-02-19T00:48:28.341Z,72.30
2023-02-19T00:51:20.975Z,72.59
2023-02-19T00:54:14.303Z,72.71
2023-02-19T00:57:06.601Z,72.75
2023-02-19T00:59:58.740Z,72.86
2023-02-19T01:02:50.806Z,72.87
2023-02-19T01:05:42.840Z,72.98
2023-02-19T01:08:35.165Z,72.93
2023-02-19T01:11:28.177Z,73.00
2023-02-19T01:14:20.208Z,72.92
2023-02-19T01:17:12.358Z,72.88
2023-02-19T01:20:04.715Z,73.06
2023-02-19T01:22:57.010Z,73.14
2023-02-19T01:25:49.143Z,73.16
2023-02-19T01:28:41.643Z,73.41
2023-02-19T01:31:34.280Z,73.38
2023-02-19T01:34:27.020Z,73.36
2023-02-19T01:37:19.101Z,73.69
2023-02-19T01:40:12.280Z,73.53
2023-02-19T01:43:04.685Z,73.62
2023-02-19T01:45:56.788Z,73.74
2023-02-19T01:48:49.813Z,73.75
2023-02-19T01:51:47.444Z,74.00
2023-02-19T01:54:43.094Z,74.11
2023-02-19T01:57:18.184Z,74.02
2023-02-19T02:00:13.118Z,74.10
2023-02-19T02:02:56.912Z,74.06
2023-02-19T02:05:56.884Z,74.31
2023-02-19T02:08:55.449Z,74.28
2023-02-19T02:11:50.812Z,74.20
2023-02-19T02:14:31.722Z,74.51
2023-02-19T02:17:31.787Z,74.32
2023-02-19T02:20:44.805Z,74.45
2023-02-19T02:23:53.333Z,74.71
2023-02-19T02:26:53.298Z,74.62
2023-02-19T02:30:11.027Z,74.53
2023-02-19T02:33:12.969Z,74.67
2023-02-19T02:36:09.901Z,74.72
2023-02-19T02:38:47.318Z,74.65
2023-02-19T02:41:44.994Z,74.88
2023-02-19T02:44:17.065Z,74.89
2023-02-19T02:47:30.900Z,74.70
2023-02-19T02:50:28.669Z,74.93
2023-02-19T02:53:51.665Z,74.93
2023-02-19T02:56:45.983Z,74.88
2023-02-19T02:59:40.667Z,74.92
2023-02-19T03:02:34.345Z,74.95
2023-02-19T03:05:45.771Z,75.04
2023-02-19T03:08:41.678Z,75.02
2023-02-19T03:11:51.532Z,75.05
2023-02-19T03:15:05.361Z,75.10
2023-02-19T03:18:19.666Z,75.11
2023-02-19T03:21:12.746Z,75.21
2023-02-19T03:24:24.403Z,75.15
2023-02-19T03:27:18.015Z,75.22
2023-02-19T03:30:15.575Z,75.12
2023-02-19T03:32:57.935Z,75.07
2023-02-19T03:35:57.347Z,75.15
2023-02-19T03:38:43.057Z,75.09
2023-02-19T03:41:40.100Z,75.08
2023-02-19T03:44:26.507Z,75.03
2023-02-19T03:47:24.418Z,75.05
2023-02-19T03:50:09.810Z,75.22
2023-02-19T03:53:09.125Z,75.00
2023-02-19T03:56:10.462Z,74.91
2023-02-19T03:59:10.485Z,74.93
2023-02-19T04:02:09.339Z,74.90
2023-02-19T04:05:06.567Z,74.93
2023-02-19T04:08:05.246Z,75.05
2023-02-19T04:11:00.068Z,75.03
2023-02-19T04:13:57.717Z,75.09
2023-02-19T04:16:52.658Z,75.17
2023-02-19T04:19:47.091Z,75.10
2023-02-19T04:22:20.553Z,75.15
2023-02-19T04:25:12.753Z,75.12
2023-02-19T04:28:05.806Z,75.14
2023-02-19T04:30:58.076Z,75.21
2023-02-19T04:33:39.534Z,75.19
2023-02-19T04:36:31.864Z,75.27
2023-02-19T04:39:24.648Z,75.24
2023-02-19T04:42:17.103Z,75.24
2023-02-19T04:45:10.183Z,75.27
2023-02-19T04:48:02.309Z,75.42
2023-02-19T04:50:54.395Z,75.33
2023-02-19T04:53:46.487Z,75.32
2023-02-19T04:56:38.775Z,75.31
2023-02-19T04:59:31.157Z,75.15
2023-02-19T05:02:23.295Z,75.31
2023-02-19T05:05:15.607Z,75.36
2023-02-19T05:07:50.699Z,75.47
2023-02-19T05:10:42.882Z,75.55
2023-02-19T05:13:35.418Z,75.58
2023-02-19T05:16:27.983Z,75.61
2023-02-19T05:19:20.113Z,75.69
2023-02-19T05:21:57.320Z,75.56
2023-02-19T05:24:49.494Z,75.64
2023-02-19T05:27:33.252Z,75.72
2023-02-19T05:30:25.531Z,75.65
2023-02-19T05:33:19.181Z,75.85
2023-02-19T05:36:14.352Z,75.79
2023-02-19T05:39:07.439Z,75.80
2023-02-19T05:41:51.018Z,75.74
2023-02-19T05:44:39.507Z,75.94
2023-02-19T05:47:31.465Z,75.88
2023-02-19T05:50:23.805Z,75.91
2023-02-19T05:53:15.879Z,75.96
2023-02-19T05:56:24.760Z,75.79
2023-02-19T05:59:20.111Z,75.97
2023-02-19T06:02:12.752Z,76.07
2023-02-19T06:04:54.026Z,75.94
2023-02-19T06:07:46.242Z,75.93
2023-02-19T06:10:41.000Z,76.07
2023-02-19T06:13:21.605Z,75.87
2023-02-19T06:16:14.117Z,75.92
2023-02-19T06:18:49.383Z,75.90
2023-02-19T06:21:41.425Z,76.04
2023-02-19T06:24:13.449Z,76.17
2023-02-19T06:26:47.761Z,76.05
2023-02-19T06:29:39.910Z,76.26
2023-02-19T06:32:32.260Z,76.19
2023-02-19T06:35:04.709Z,76.15
2023-02-19T06:37:47.381Z,76.04
2023-02-19T06:40:39.554Z,76.09
2023-02-19T06:43:27.711Z,76.15
2023-02-19T06:46:19.942Z,76.09
2023-02-19T06:49:12.157Z,76.13
2023-02-19T06:52:04.517Z,76.16
2023-02-19T06:54:56.672Z,76.20
2023-02-19T06:57:48.714Z,76.29
2023-02-19T07:00:40.770Z,76.23
2023-02-19T07:03:32.844Z,76.28
2023-02-19T07:06:26.528Z,76.19
2023-02-19T07:09:09.287Z,76.34
2023-02-19T07:12:01.390Z,76.19
2023-02-19T07:14:53.444Z,76.25
2023-02-19T07:17:45.528Z,76.34
2023-02-19T07:20:38.041Z,76.44
2023-02-19T07:23:27.955Z,76.45
2023-02-19T07:26:22.521Z,76.38
2023-02-19T07:29:14.662Z,76.46
2023-02-19T07:32:07.323Z,76.35
2023-02-19T07:34:59.388Z,76.45
2023-02-19T07:37:51.543Z,76.27
2023-02-19T07:40:29.111Z,76.43
2023-02-19T07:43:17.683Z,76.58
2023-02-19T07:45:49.808Z,76.50
2023-02-19T07:48:44.305Z,75.97
2023-02-19T07:51:36.473Z,76.03
2023-02-19T07:54:29.208Z,75.93
2023-02-19T07:57:21.473Z,75.88
2023-02-19T08:00:15.363Z,75.96
2023-02-19T08:03:07.949Z,75.96
2023-02-19T08:06:00.231Z,75.96
2023-02-19T08:08:35.103Z,75.99
2023-02-19T08:11:44.457Z,75.84
2023-02-19T08:14:36.745Z,76.02
2023-02-19T08:17:30.204Z,76.00
2023-02-19T08:20:22.408Z,76.07
2023-02-19T08:22:57.153Z,76.09
2023-02-19T08:25:50.845Z,76.12
2023-02-19T08:28:42.994Z,76.05
2023-02-19T08:31:36.103Z,76.10
2023-02-19T08:34:28.421Z,76.24
2023-02-19T08:37:20.623Z,76.20
2023-02-19T08:39:55.525Z,76.22
2023-02-19T08:42:47.647Z,76.06
2023-02-19T08:45:42.667Z,76.09
2023-02-19T08:48:17.456Z,76.21
2023-02-19T08:51:00.353Z,76.33
2023-02-19T08:53:43.572Z,76.21
2023-02-19T08:56:24.904Z,76.20
2023-02-19T08:59:05.977Z,76.22
2023-02-19T09:01:48.242Z,76.30
2023-02-19T09:04:40.447Z,76.18
2023-02-19T09:07:29.390Z,76.11
2023-02-19T09:10:14.184Z,76.03
2023-02-19T09:12:49.245Z,75.89
2023-02-19T09:15:41.641Z,75.93
2023-02-19T09:18:34.129Z,75.92
2023-02-19T09:21:09.348Z,75.91
2023-02-19T09:24:01.679Z,75.91
2023-02-19T09:26:38.579Z,75.92
2023-02-19T09:29:31.538Z,75.72
2023-02-19T09:32:14.418Z,75.42
2023-02-19T09:35:07.193Z,75.18
2023-02-19T09:37:42.165Z,75.11
2023-02-19T09:40:21.449Z,75.07
2023-02-19T09:42:56.999Z,75.03
2023-02-19T09:45:49.684Z,75.07
2023-02-19T09:48:41.865Z,75.12
2023-02-19T09:51:35.915Z,75.03
2023-02-19T09:54:30.192Z,74.81
2023-02-19T09:57:04.641Z,74.57
2023-02-19T10:00:02.838Z,74.49
2023-02-19T10:02:54.730Z,74.21
2023-02-19T10:05:36.560Z,73.35
2023-02-19T10:08:16.494Z,72.92
2023-02-19T10:11:13.035Z,72.72
2023-02-19T10:14:10.075Z,72.76
2023-02-19T10:16:53.630Z,72.38
2023-02-19T10:19:35.763Z,72.63
2023-02-19T10:22:11.715Z,72.77
2023-02-19T10:24:56.668Z,72.78
2023-02-19T10:27:37.759Z,72.32
2023-02-19T10:30:23.964Z,72.19
2023-02-19T10:33:12.855Z,72.44
2023-02-19T10:36:07.402Z,72.34
2023-02-19T10:39:00.502Z,72.60
2023-02-19T10:41:36.150Z,72.38
2023-02-19T10:44:29.474Z,72.04
2023-02-19T10:47:07.433Z,71.75
2023-02-19T10:49:52.661Z,71.76
2023-02-19T10:52:34.395Z,71.86
2023-02-19T10:55:26.799Z,71.80
2023-02-19T10:58:28.006Z,71.72
2023-02-19T11:01:22.781Z,71.56
2023-02-19T11:04:19.498Z,71.36
2023-02-19T11:07:08.493Z,71.08
2023-02-19T11:10:02.119Z,70.64
2023-02-19T11:12:49.004Z,70.65
2023-02-19T11:15:41.828Z,70.33
2023-02-19T11:18:25.734Z,70.29
2023-02-19T11:21:03.199Z,70.12
2023-02-19T11:23:56.416Z,70.35
2023-02-19T11:26:38.106Z,70.41
2023-02-19T11:29:23.136Z,70.46
2023-02-19T11:32:29.369Z,70.52
2023-02-19T11:35:25.240Z,70.38
2023-02-19T11:38:19.633Z,70.30
2023-02-19T11:41:21.920Z,70.32
2023-02-19T11:44:25.811Z,70.31
2023-02-19T11:47:40.505Z,70.37
2023-02-19T11:50:24.082Z,70.15
2023-02-19T11:53:23.709Z,69.98
2023-02-19T11:56:15.376Z,69.88
2023-02-19T11:59:03.916Z,69.76
2023-02-19T12:02:13.064Z,69.62
2023-02-19T12:05:31.652Z,69.49
2023-02-19T12:08:23.721Z,69.67
2023-02-19T12:11:12.646Z,69.39
2023-02-19T12:14:20.713Z,69.77
2023-02-19T12:17:04.410Z,69.84
2023-02-19T12:20:02.474Z,69.76
2023-02-19T12:23:06.989Z,69.30
2023-02-19T12:26:06.250Z,69.37
2023-02-19T12:29:15.246Z,69.20
2023-02-19T12:32:32.424Z,69.08
2023-02-19T12:35:39.741Z,69.21
2023-02-19T12:38:37.940Z,69.37
2023-02-19T12:41:40.484Z,69.11
2023-02-19T12:44:28.080Z,69.17
2023-02-19T12:47:26.011Z,69.25
2023-02-19T12:50:25.480Z,69.21
2023-02-19T12:53:31.880Z,69.01
2023-02-19T12:56:29.346Z,69.02
2023-02-19T12:59:25.992Z,68.84
2023-02-19T13:02:25.329Z,68.64
2023-02-19T13:05:14.795Z,68.48
2023-02-19T13:07:56.858Z,68.25
2023-02-19T13:10:42.117Z,68.32
2023-02-19T13:13:41.970Z,68.51
2023-02-19T13:16:39.176Z,68.90
2023-02-19T13:19:31.959Z,68.65
2023-02-19T13:22:33.258Z,68.54
2023-02-19T13:25:31.808Z,68.64
2023-02-19T13:28:39.685Z,68.60
2023-02-19T13:31:40.664Z,68.36
2023-02-19T13:34:49.295Z,68.29
2023-02-19T13:37:33.154Z,68.31
2023-02-19T13:40:27.908Z,68.50
2023-02-19T13:43:25.076Z,68.07
2023-02-19T13:46:20.238Z,67.78
2023-02-19T13:49:45.345Z,67.37
2023-02-19T13:52:41.315Z,67.27
2023-02-19T13:55:53.833Z,67.59
2023-02-19T13:59:13.603Z,67.96
2023-02-19T14:02:35.477Z,67.92
2023-02-19T14:06:02.746Z,67.53
2023-02-19T14:08:58.195Z,67.12
2023-02-19T14:12:21.301Z,67.12
2023-02-19T14:15:40.568Z,66.89
2023-02-19T14:18:46.895Z,67.01
2023-02-19T14:21:35.589Z,66.70
2023-02-19T14:24:27.934Z,66.50
2023-02-19T14:27:20.410Z,66.63
2023-02-19T14:30:15.083Z,66.49
2023-02-19T14:33:12.416Z,66.83
2023-02-19T14:36:11.080Z,66.94
2023-02-19T14:39:06.460Z,67.00
2023-02-19T14:42:01.049Z,66.85
2023-02-19T14:44:58.056Z,67.20
2023-02-19T14:47:52.171Z,67.17
2023-02-19T14:50:47.755Z,67.13
2023-02-19T14:53:44.804Z,67.29
2023-02-19T14:56:38.215Z,67.48
2023-02-19T14:59:31.846Z,67.55
2023-02-19T15:02:17.910Z,67.29
2023-02-19T15:05:18.976Z,67.12
2023-02-19T15:08:13.453Z,67.15
2023-02-19T15:10:56.256Z,67.03
2023-02-19T15:13:45.673Z,67.10
2023-02-19T15:16:38.826Z,67.22
2023-02-19T15:19:34.954Z,67.30
2023-02-19T15:22:29.282Z,67.31
2023-02-19T15:25:22.868Z,67.38
2023-02-19T15:28:33.687Z,67.61
2023-02-19T15:31:18.683Z,67.08
2023-02-19T15:34:01.785Z,66.78
2023-02-19T15:36:57.892Z,66.87
2023-02-19T15:39:52.403Z,66.54
2023-02-19T15:42:48.321Z,66.41
2023-02-19T15:45:29.033Z,66.32
2023-02-19T15:48:26.844Z,66.42
2023-02-19T15:51:24.790Z,66.35
2023-02-19T15:54:27.196Z,66.40
2023-02-19T15:57:25.026Z,66.47
2023-02-19T16:00:20.774Z,66.51
2023-02-19T16:03:16.988Z,66.49
2023-02-19T16:06:14.794Z,66.44
2023-02-19T16:09:03.599Z,66.52
2023-02-19T16:11:54.349Z,66.20
2023-02-19T16:14:32.410Z,66.32
2023-02-19T16:17:28.435Z,66.26
2023-02-19T16:20:25.066Z,66.42
2023-02-19T16:23:14.406Z,66.39
2023-02-19T16:26:07.127Z,66.29
2023-02-19T16:28:59.588Z,66.19
2023-02-19T16:31:54.038Z,66.14
2023-02-19T16:34:47.945Z,66.04
2023-02-19T16:37:44.086Z,66.38
2023-02-19T16:40:59.719Z,66.41
2023-02-19T16:43:51.977Z,66.42
2023-02-19T16:46:44.385Z,66.38
2023-02-19T16:49:38.124Z,66.57
2023-02-19T16:52:31.233Z,66.36
2023-02-19T16:55:23.410Z,66.30
2023-02-19T16:58:15.879Z,66.41
2023-02-19T17:00:53.533Z,66.59
2023-02-19T17:03:48.048Z,66.52
2023-02-19T17:06:25.343Z,66.44
2023-02-19T17:09:13.378Z,66.28
2023-02-19T17:12:06.755Z,66.29
2023-02-19T17:14:58.888Z,66.38
2023-02-19T17:17:51.199Z,66.15
2023-02-19T17:20:46.487Z,65.87
2023-02-19T17:23:39.090Z,65.59
2023-02-19T17:26:17.219Z,65.78
2023-02-19T17:29:13.969Z,65.86
2023-02-19T17:32:06.981Z,65.83
2023-02-19T17:34:59.293Z,65.88
2023-02-19T17:37:53.325Z,66.10
2023-02-19T17:40:46.265Z,66.09
2023-02-19T17:43:38.810Z,66.32
2023-02-19T17:46:30.944Z,66.19
2023-02-19T17:49:23.050Z,66.41
2023-02-19T17:52:17.803Z,66.60
2023-02-19T17:55:12.406Z,66.98
2023-02-19T17:58:04.635Z,67.05
2023-02-19T18:00:57.056Z,67.26
2023-02-19T18:03:49.348Z,67.31
2023-02-19T18:06:42.946Z,67.10
2023-02-19T18:09:35.031Z,67.22
2023-02-19T18:12:28.670Z,67.23
2023-02-19T18:15:23.300Z,67.25
2023-02-19T18:18:15.429Z,67.30
2023-02-19T18:21:05.295Z,67.17
2023-02-19T18:23:42.864Z,67.35
2023-02-19T18:26:35.273Z,67.17
2023-02-19T18:29:29.968Z,67.23
2023-02-19T18:32:04.438Z,67.34
2023-02-19T18:35:00.000Z,67.41
2023-02-19T18:37:54.345Z,67.17
2023-02-19T18:40:36.816Z,66.95
2023-02-19T18:43:17.675Z,66.93
2023-02-19T18:45:53.137Z,66.81
2023-02-19T18:48:45.542Z,66.91
2023-02-19T18:51:37.601Z,66.92
2023-02-19T18:54:30.167Z,66.73
2023-02-19T18:57:23.542Z,66.84
2023-02-19T19:00:08.090Z,66.77
2023-02-19T19:03:01.417Z,66.83
2023-02-19T19:05:53.652Z,66.81
2023-02-19T19:08:45.788Z,66.82
2023-02-19T19:11:38.480Z,66.82
2023-02-19T19:14:31.249Z,66.93
2023-02-19T19:17:23.389Z,67.02
2023-02-19T19:20:17.890Z,67.06
2023-02-19T19:23:10.110Z,66.92
2023-02-19T19:26:02.211Z,66.86
2023-02-19T19:28:55.231Z,66.97
2023-02-19T19:31:47.922Z,67.15
2023-02-19T19:34:40.577Z,67.07
2023-02-19T19:37:34.135Z,66.95
2023-02-19T19:40:27.203Z,67.11
2023-02-19T19:43:08.856Z,66.97
2023-02-19T19:46:04.537Z,67.12
2023-02-19T19:48:57.998Z,67.12
2023-02-19T19:51:51.030Z,67.17
2023-02-19T19:54:44.776Z,67.33
2023-02-19T19:57:38.530Z,67.37
2023-02-19T20:00:19.354Z,67.49
2023-02-19T20:03:11.695Z,67.46
2023-02-19T20:06:03.980Z,67.45
2023-02-19T20:08:56.251Z,67.44
2023-02-19T20:11:51.163Z,67.36
2023-02-19T20:14:46.831Z,67.50
2023-02-19T20:17:38.911Z,67.57
2023-02-19T20:20:22.575Z,67.67
2023-02-19T20:23:14.989Z,67.96
2023-02-19T20:26:07.578Z,68.09
2023-02-19T20:28:59.977Z,68.00
2023-02-19T20:31:52.894Z,68.08
2023-02-19T20:34:45.091Z,68.04
2023-02-19T20:37:38.225Z,67.89
2023-02-19T20:40:14.487Z,68.12
2023-02-19T20:43:06.610Z,67.94
2023-02-19T20:45:49.076Z,67.86
2023-02-19T20:48:23.970Z,67.67
2023-02-19T20:51:13.445Z,67.52
2023-02-19T20:54:05.734Z,67.47
2023-02-19T20:56:59.459Z,67.47
2023-02-19T20:59:41.989Z,67.28
2023-02-19T21:02:34.438Z,67.47
2023-02-19T21:05:26.661Z,67.33
2023-02-19T21:08:11.782Z,67.35
2023-02-19T21:11:03.936Z,67.63
2023-02-19T21:13:59.201Z,67.77
2023-02-19T21:16:34.915Z,67.58
2023-02-19T21:19:27.167Z,67.86
2023-02-19T21:22:09.480Z,68.15
2023-02-19T21:25:01.553Z,68.10
2023-02-19T21:27:53.738Z,68.12
2023-02-19T21:30:36.303Z,67.87
2023-02-19T21:33:28.360Z,67.71
2023-02-19T21:36:20.945Z,67.79
2023-02-19T21:39:15.140Z,67.85
2023-02-19T21:42:07.442Z,68.02
2023-02-19T21:44:59.564Z,67.99
2023-02-19T21:47:43.633Z,68.21
2023-02-19T21:50:26.130Z,68.27
2023-02-19T21:53:01.353Z,68.38
2023-02-19T21:55:58.757Z,68.35
2023-02-19T21:58:51.152Z,68.56
2023-02-19T22:01:27.637Z,68.51
2023-02-19T22:04:21.074Z,68.58
2023-02-19T22:07:13.438Z,68.96
2023-02-19T22:09:45.261Z,68.63
2023-02-19T22:12:37.472Z,68.67
2023-02-19T22:15:29.617Z,68.68
2023-02-19T22:18:21.794Z,69.09
2023-02-19T22:21:13.914Z,68.89
2023-02-19T22:24:06.936Z,68.76
2023-02-19T22:27:00.187Z,69.02
2023-02-19T22:29:52.400Z,68.99
2023-02-19T22:32:44.650Z,69.13
2023-02-19T22:35:27.154Z,69.14
2023-02-19T22:38:19.161Z,68.88
2023-02-19T22:41:11.559Z,68.91
2023-02-19T22:44:03.684Z,69.07
2023-02-19T22:46:51.546Z,69.17
2023-02-19T22:49:26.476Z,69.05
2023-02-19T22:52:15.098Z,68.94
2023-02-19T22:55:07.823Z,69.33
2023-02-19T22:57:59.931Z,69.21
2023-02-19T23:00:52.164Z,69.12
2023-02-19T23:03:52.874Z,69.10
2023-02-19T23:06:46.314Z,69.36
2023-02-19T23:09:38.643Z,69.18
2023-02-19T23:12:13.652Z,69.20
2023-02-19T23:15:06.720Z,69.39
2023-02-19T23:17:59.804Z,69.13
2023-02-19T23:20:36.873Z,69.35
2023-02-19T23:23:28.941Z,69.42
2023-02-19T23:26:21.353Z,69.12
2023-02-19T23:29:15.787Z,69.40
2023-02-19T23:32:08.160Z,69.28
2023-02-19T23:35:00.351Z,69.23
2023-02-19T23:37:52.442Z,69.41
2023-02-19T23:40:45.320Z,69.27
2023-02-19T23:43:37.435Z,68.97
2023-02-19T23:46:29.529Z,69.18
2023-02-19T23:49:11.922Z,69.11
2023-02-19T23:52:04.091Z,69.19
2023-02-19T23:54:57.763Z,69.03
2023-02-19T23:57:49.869Z,69.11
